sensor_id;sensor_type;location;lat;lon;timestamp;P1;durP1;ratioP1;P2;durP2;ratioP2
64075;SDS011;50327;51.328;12.324;2022-09-03T00:00:18;2.65;;;1.30;;
64075;SDS011;50327;51.328;12.324;2022-09-03T00:03:30;6.57;;;1.50;;
64075;SDS011;50327;51.328;12.324;2022-09-03T00:13:52;4.72;;;1.60;;
64075;SDS011;50327;51.328;12.324;2022-09-03T00:16:23;4.05;;;1.55;;
64075;SDS011;50327;51.328;12.324;2022-09-03T00:18:57;3.78;;;1.75;;
64075;SDS011;50327;51.328;12.324;2022-09-03T00:21:37;6.50;;;1.40;;
64075;SDS011;50327;51.328;12.324;2022-09-03T00:24:08;4.78;;;2.03;;
64075;SDS011;50327;51.328;12.324;2022-09-03T00:26:37;7.15;;;2.28;;
64075;SDS011;50327;51.328;12.324;2022-09-03T00:29:17;6.68;;;2.30;;
64075;SDS011;50327;51.328;12.324;2022-09-03T00:31:48;8.23;;;1.52;;
64075;SDS011;50327;51.328;12.324;2022-09-03T00:34:23;8.90;;;1.67;;
64075;SDS011;50327;51.328;12.324;2022-09-03T00:36:54;8.00;;;1.50;;
64075;SDS011;50327;51.328;12.324;2022-09-03T00:39:21;5.15;;;1.73;;
64075;SDS011;50327;51.328;12.324;2022-09-03T00:52:41;9.10;;;1.40;;
64075;SDS011;50327;51.328;12.324;2022-09-03T01:00:55;7.78;;;1.58;;
64075;SDS011;50327;51.328;12.324;2022-09-03T01:04:05;7.85;;;1.73;;
64075;SDS011;50327;51.328;12.324;2022-09-03T01:12:04;5.15;;;1.33;;
64075;SDS011;50327;51.328;12.324;2022-09-03T01:17:57;4.50;;;1.48;;
64075;SDS011;50327;51.328;12.324;2022-09-03T01:20:49;4.80;;;1.70;;
64075;SDS011;50327;51.328;12.324;2022-09-03T01:29:13;3.38;;;1.40;;
64075;SDS011;50327;51.328;12.324;2022-09-03T01:31:54;6.13;;;1.33;;
64075;SDS011;50327;51.328;12.324;2022-09-03T01:37:27;3.28;;;1.58;;
64075;SDS011;50327;51.328;12.324;2022-09-03T02:02:02;2.45;;;1.17;;
64075;SDS011;50327;51.328;12.324;2022-09-03T02:04:23;5.10;;;1.65;;
64075;SDS011;50327;51.328;12.324;2022-09-03T02:06:50;5.00;;;1.52;;
64075;SDS011;50327;51.328;12.324;2022-09-03T02:09:17;4.75;;;1.50;;
64075;SDS011;50327;51.328;12.324;2022-09-03T02:11:43;5.22;;;1.67;;
64075;SDS011;50327;51.328;12.324;2022-09-03T02:14:15;8.68;;;1.60;;
64075;SDS011;50327;51.328;12.324;2022-09-03T02:16:40;8.80;;;1.52;;
64075;SDS011;50327;51.328;12.324;2022-09-03T02:19:10;7.20;;;1.50;;
64075;SDS011;50327;51.328;12.324;2022-09-03T02:21:39;2.78;;;1.42;;
64075;SDS011;50327;51.328;12.324;2022-09-03T02:24:11;3.90;;;1.60;;
64075;SDS011;50327;51.328;12.324;2022-09-03T02:26:37;3.95;;;1.98;;
64075;SDS011;50327;51.328;12.324;2022-09-03T02:29:03;5.18;;;1.38;;
64075;SDS011;50327;51.328;12.324;2022-09-03T02:31:28;10.07;;;2.10;;
64075;SDS011;50327;51.328;12.324;2022-09-03T02:33:55;4.10;;;1.50;;
64075;SDS011;50327;51.328;12.324;2022-09-03T02:36:26;4.38;;;1.70;;
64075;SDS011;50327;51.328;12.324;2022-09-03T02:38:56;6.15;;;1.48;;
64075;SDS011;50327;51.328;12.324;2022-09-03T02:41:22;4.30;;;1.70;;
64075;SDS011;50327;51.328;12.324;2022-09-03T02:43:50;5.77;;;1.73;;
64075;SDS011;50327;51.328;12.324;2022-09-03T02:46:24;4.75;;;1.67;;
64075;SDS011;50327;51.328;12.324;2022-09-03T02:48:56;2.50;;;1.30;;
64075;SDS011;50327;51.328;12.324;2022-09-03T02:51:22;4.30;;;1.60;;
64075;SDS011;50327;51.328;12.324;2022-09-03T02:53:47;4.35;;;1.80;;
64075;SDS011;50327;51.328;12.324;2022-09-03T02:56:12;5.35;;;1.83;;
64075;SDS011;50327;51.328;12.324;2022-09-03T02:58:38;4.18;;;1.52;;
64075;SDS011;50327;51.328;12.324;2022-09-03T03:01:03;3.00;;;1.55;;
64075;SDS011;50327;51.328;12.324;2022-09-03T03:03:29;3.65;;;1.50;;
64075;SDS011;50327;51.328;12.324;2022-09-03T03:05:55;4.35;;;1.88;;
64075;SDS011;50327;51.328;12.324;2022-09-03T03:08:24;7.50;;;2.03;;
64075;SDS011;50327;51.328;12.324;2022-09-03T03:10:52;9.77;;;1.60;;
64075;SDS011;50327;51.328;12.324;2022-09-03T03:13:20;9.23;;;1.55;;
64075;SDS011;50327;51.328;12.324;2022-09-03T03:15:46;9.98;;;1.70;;
64075;SDS011;50327;51.328;12.324;2022-09-03T03:18:13;2.95;;;1.63;;
64075;SDS011;50327;51.328;12.324;2022-09-03T03:20:39;4.68;;;2.03;;
64075;SDS011;50327;51.328;12.324;2022-09-03T03:23:05;7.20;;;1.58;;
64075;SDS011;50327;51.328;12.324;2022-09-03T03:25:34;7.25;;;2.25;;
64075;SDS011;50327;51.328;12.324;2022-09-03T03:28:01;8.93;;;1.98;;
64075;SDS011;50327;51.328;12.324;2022-09-03T03:30:28;4.60;;;1.80;;
64075;SDS011;50327;51.328;12.324;2022-09-03T03:32:54;4.82;;;1.77;;
64075;SDS011;50327;51.328;12.324;2022-09-03T03:35:19;14.50;;;2.00;;
64075;SDS011;50327;51.328;12.324;2022-09-03T03:37:45;4.68;;;1.60;;
64075;SDS011;50327;51.328;12.324;2022-09-03T03:40:10;6.95;;;1.80;;
64075;SDS011;50327;51.328;12.324;2022-09-03T03:42:36;4.95;;;1.92;;
64075;SDS011;50327;51.328;12.324;2022-09-03T03:45:02;4.47;;;1.80;;
64075;SDS011;50327;51.328;12.324;2022-09-03T03:47:28;4.40;;;1.63;;
64075;SDS011;50327;51.328;12.324;2022-09-03T03:49:55;9.45;;;2.00;;
64075;SDS011;50327;51.328;12.324;2022-09-03T03:52:22;7.80;;;2.08;;
64075;SDS011;50327;51.328;12.324;2022-09-03T03:54:47;6.88;;;2.13;;
64075;SDS011;50327;51.328;12.324;2022-09-03T03:57:14;4.75;;;1.70;;
64075;SDS011;50327;51.328;12.324;2022-09-03T03:59:40;5.63;;;2.25;;
64075;SDS011;50327;51.328;12.324;2022-09-03T04:02:05;9.50;;;1.67;;
64075;SDS011;50327;51.328;12.324;2022-09-03T04:04:31;9.50;;;2.13;;
64075;SDS011;50327;51.328;12.324;2022-09-03T04:06:56;4.85;;;1.55;;
64075;SDS011;50327;51.328;12.324;2022-09-03T04:09:21;3.60;;;1.67;;
64075;SDS011;50327;51.328;12.324;2022-09-03T04:11:47;3.20;;;1.50;;
64075;SDS011;50327;51.328;12.324;2022-09-03T04:14:12;5.45;;;1.90;;
64075;SDS011;50327;51.328;12.324;2022-09-03T04:16:38;7.13;;;1.60;;
64075;SDS011;50327;51.328;12.324;2022-09-03T04:19:03;4.85;;;2.03;;
64075;SDS011;50327;51.328;12.324;2022-09-03T04:21:29;5.05;;;1.60;;
64075;SDS011;50327;51.328;12.324;2022-09-03T04:23:55;5.53;;;1.70;;
64075;SDS011;50327;51.328;12.324;2022-09-03T04:26:23;3.28;;;1.50;;
64075;SDS011;50327;51.328;12.324;2022-09-03T04:28:56;7.63;;;2.10;;
64075;SDS011;50327;51.328;12.324;2022-09-03T04:31:23;3.97;;;1.90;;
64075;SDS011;50327;51.328;12.324;2022-09-03T04:33:49;6.38;;;1.90;;
64075;SDS011;50327;51.328;12.324;2022-09-03T04:36:16;4.45;;;1.50;;
64075;SDS011;50327;51.328;12.324;2022-09-03T04:38:44;5.38;;;2.10;;
64075;SDS011;50327;51.328;12.324;2022-09-03T04:41:12;6.13;;;2.35;;
64075;SDS011;50327;51.328;12.324;2022-09-03T04:43:42;3.83;;;1.73;;
64075;SDS011;50327;51.328;12.324;2022-09-03T04:46:08;4.03;;;1.90;;
64075;SDS011;50327;51.328;12.324;2022-09-03T04:48:36;8.27;;;2.28;;
64075;SDS011;50327;51.328;12.324;2022-09-03T04:51:03;6.82;;;1.98;;
64075;SDS011;50327;51.328;12.324;2022-09-03T04:53:34;5.70;;;1.80;;
64075;SDS011;50327;51.328;12.324;2022-09-03T04:56:02;5.35;;;2.40;;
64075;SDS011;50327;51.328;12.324;2022-09-03T04:58:28;10.68;;;2.28;;
64075;SDS011;50327;51.328;12.324;2022-09-03T05:00:53;6.85;;;2.38;;
64075;SDS011;50327;51.328;12.324;2022-09-03T05:03:19;6.47;;;1.67;;
64075;SDS011;50327;51.328;12.324;2022-09-03T05:05:52;5.60;;;1.70;;
64075;SDS011;50327;51.328;12.324;2022-09-03T05:08:19;4.75;;;2.05;;
64075;SDS011;50327;51.328;12.324;2022-09-03T05:10:45;7.03;;;2.08;;
64075;SDS011;50327;51.328;12.324;2022-09-03T05:13:10;4.70;;;2.08;;
64075;SDS011;50327;51.328;12.324;2022-09-03T05:15:36;6.85;;;2.30;;
64075;SDS011;50327;51.328;12.324;2022-09-03T05:18:02;5.07;;;1.80;;
64075;SDS011;50327;51.328;12.324;2022-09-03T05:20:28;6.45;;;1.70;;
64075;SDS011;50327;51.328;12.324;2022-09-03T05:23:00;8.45;;;1.80;;
64075;SDS011;50327;51.328;12.324;2022-09-03T05:25:27;6.05;;;1.77;;
64075;SDS011;50327;51.328;12.324;2022-09-03T05:27:56;4.22;;;1.80;;
64075;SDS011;50327;51.328;12.324;2022-09-03T05:30:22;5.72;;;2.22;;
64075;SDS011;50327;51.328;12.324;2022-09-03T05:32:47;4.53;;;1.92;;
64075;SDS011;50327;51.328;12.324;2022-09-03T05:35:13;4.43;;;1.80;;
64075;SDS011;50327;51.328;12.324;2022-09-03T05:37:38;4.47;;;1.88;;
64075;SDS011;50327;51.328;12.324;2022-09-03T05:40:05;9.25;;;2.47;;
64075;SDS011;50327;51.328;12.324;2022-09-03T05:42:34;5.18;;;1.95;;
64075;SDS011;50327;51.328;12.324;2022-09-03T05:45:01;4.80;;;1.80;;
64075;SDS011;50327;51.328;12.324;2022-09-03T05:47:29;5.03;;;1.98;;
64075;SDS011;50327;51.328;12.324;2022-09-03T05:49:54;6.10;;;1.83;;
64075;SDS011;50327;51.328;12.324;2022-09-03T05:52:20;4.20;;;2.00;;
64075;SDS011;50327;51.328;12.324;2022-09-03T05:54:47;6.05;;;2.22;;
64075;SDS011;50327;51.328;12.324;2022-09-03T05:57:12;8.88;;;2.13;;
64075;SDS011;50327;51.328;12.324;2022-09-03T05:59:38;8.40;;;1.92;;
64075;SDS011;50327;51.328;12.324;2022-09-03T06:02:03;4.20;;;1.90;;
64075;SDS011;50327;51.328;12.324;2022-09-03T06:04:29;4.15;;;1.80;;
64075;SDS011;50327;51.328;12.324;2022-09-03T06:06:54;9.90;;;2.47;;
64075;SDS011;50327;51.328;12.324;2022-09-03T06:09:20;4.78;;;1.92;;
64075;SDS011;50327;51.328;12.324;2022-09-03T06:11:46;4.97;;;2.00;;
64075;SDS011;50327;51.328;12.324;2022-09-03T06:14:13;17.08;;;2.35;;
64075;SDS011;50327;51.328;12.324;2022-09-03T06:16:44;4.28;;;1.73;;
64075;SDS011;50327;51.328;12.324;2022-09-03T06:19:12;4.88;;;1.95;;
64075;SDS011;50327;51.328;12.324;2022-09-03T06:21:39;7.30;;;2.10;;
64075;SDS011;50327;51.328;12.324;2022-09-03T06:24:07;8.02;;;1.90;;
64075;SDS011;50327;51.328;12.324;2022-09-03T06:26:33;4.55;;;1.77;;
64075;SDS011;50327;51.328;12.324;2022-09-03T06:28:58;7.43;;;2.00;;
64075;SDS011;50327;51.328;12.324;2022-09-03T06:31:24;7.40;;;1.80;;
64075;SDS011;50327;51.328;12.324;2022-09-03T06:33:50;5.18;;;1.85;;
64075;SDS011;50327;51.328;12.324;2022-09-03T06:36:18;6.95;;;1.70;;
64075;SDS011;50327;51.328;12.324;2022-09-03T06:38:44;6.20;;;1.67;;
64075;SDS011;50327;51.328;12.324;2022-09-03T06:41:15;4.70;;;1.80;;
64075;SDS011;50327;51.328;12.324;2022-09-03T06:43:45;12.07;;;1.98;;
64075;SDS011;50327;51.328;12.324;2022-09-03T06:46:13;5.70;;;1.70;;
64075;SDS011;50327;51.328;12.324;2022-09-03T06:48:40;9.70;;;1.83;;
64075;SDS011;50327;51.328;12.324;2022-09-03T06:51:07;10.85;;;2.03;;
64075;SDS011;50327;51.328;12.324;2022-09-03T06:53:38;4.18;;;1.90;;
64075;SDS011;50327;51.328;12.324;2022-09-03T06:56:06;5.82;;;1.90;;
64075;SDS011;50327;51.328;12.324;2022-09-03T06:58:37;7.72;;;1.63;;
64075;SDS011;50327;51.328;12.324;2022-09-03T07:01:07;4.80;;;1.63;;
64075;SDS011;50327;51.328;12.324;2022-09-03T07:03:35;5.07;;;1.70;;
64075;SDS011;50327;51.328;12.324;2022-09-03T07:06:05;3.38;;;1.55;;
64075;SDS011;50327;51.328;12.324;2022-09-03T07:08:36;9.63;;;1.85;;
64075;SDS011;50327;51.328;12.324;2022-09-03T07:11:02;8.07;;;1.73;;
64075;SDS011;50327;51.328;12.324;2022-09-03T07:13:33;4.03;;;2.20;;
64075;SDS011;50327;51.328;12.324;2022-09-03T07:16:07;7.22;;;1.58;;
64075;SDS011;50327;51.328;12.324;2022-09-03T07:18:35;9.48;;;1.70;;
64075;SDS011;50327;51.328;12.324;2022-09-03T07:21:02;8.65;;;1.50;;
64075;SDS011;50327;51.328;12.324;2022-09-03T07:23:29;15.20;;;1.60;;
64075;SDS011;50327;51.328;12.324;2022-09-03T07:25:56;8.73;;;1.58;;
64075;SDS011;50327;51.328;12.324;2022-09-03T07:28:23;10.65;;;1.83;;
64075;SDS011;50327;51.328;12.324;2022-09-03T07:30:49;5.80;;;1.75;;
64075;SDS011;50327;51.328;12.324;2022-09-03T07:33:15;8.27;;;1.48;;
64075;SDS011;50327;51.328;12.324;2022-09-03T07:35:41;4.35;;;1.98;;
64075;SDS011;50327;51.328;12.324;2022-09-03T07:38:07;7.38;;;1.67;;
64075;SDS011;50327;51.328;12.324;2022-09-03T07:40:34;5.90;;;1.60;;
64075;SDS011;50327;51.328;12.324;2022-09-03T07:42:59;3.28;;;1.70;;
64075;SDS011;50327;51.328;12.324;2022-09-03T07:45:27;5.35;;;1.60;;
64075;SDS011;50327;51.328;12.324;2022-09-03T07:47:53;8.40;;;1.40;;
64075;SDS011;50327;51.328;12.324;2022-09-03T07:50:18;5.13;;;1.77;;
64075;SDS011;50327;51.328;12.324;2022-09-03T07:52:44;9.60;;;1.42;;
64075;SDS011;50327;51.328;12.324;2022-09-03T07:55:10;5.35;;;1.70;;
64075;SDS011;50327;51.328;12.324;2022-09-03T07:57:35;6.07;;;1.77;;
64075;SDS011;50327;51.328;12.324;2022-09-03T08:00:01;4.53;;;1.58;;
64075;SDS011;50327;51.328;12.324;2022-09-03T08:02:27;6.60;;;1.63;;
64075;SDS011;50327;51.328;12.324;2022-09-03T08:04:52;4.78;;;1.77;;
64075;SDS011;50327;51.328;12.324;2022-09-03T08:07:17;4.32;;;1.50;;
64075;SDS011;50327;51.328;12.324;2022-09-03T08:09:43;8.75;;;1.95;;
64075;SDS011;50327;51.328;12.324;2022-09-03T08:12:08;5.53;;;1.52;;
64075;SDS011;50327;51.328;12.324;2022-09-03T08:14:33;6.90;;;2.20;;
64075;SDS011;50327;51.328;12.324;2022-09-03T08:16:59;3.42;;;1.52;;
64075;SDS011;50327;51.328;12.324;2022-09-03T08:19:24;6.05;;;1.63;;
64075;SDS011;50327;51.328;12.324;2022-09-03T08:21:49;10.38;;;1.52;;
64075;SDS011;50327;51.328;12.324;2022-09-03T08:24:16;6.55;;;1.67;;
64075;SDS011;50327;51.328;12.324;2022-09-03T08:26:44;4.35;;;1.35;;
64075;SDS011;50327;51.328;12.324;2022-09-03T08:29:10;17.70;;;1.98;;
64075;SDS011;50327;51.328;12.324;2022-09-03T08:31:35;3.67;;;1.45;;
64075;SDS011;50327;51.328;12.324;2022-09-03T08:34:02;3.85;;;1.50;;
64075;SDS011;50327;51.328;12.324;2022-09-03T08:36:30;7.70;;;1.42;;
64075;SDS011;50327;51.328;12.324;2022-09-03T08:38:58;8.50;;;1.50;;
64075;SDS011;50327;51.328;12.324;2022-09-03T08:49:28;7.57;;;1.73;;
64075;SDS011;50327;51.328;12.324;2022-09-03T08:52:18;9.38;;;2.03;;
64075;SDS011;50327;51.328;12.324;2022-09-03T08:54:45;4.28;;;1.77;;
64075;SDS011;50327;51.328;12.324;2022-09-03T08:57:13;5.43;;;1.70;;
64075;SDS011;50327;51.328;12.324;2022-09-03T08:59:40;8.40;;;1.88;;
64075;SDS011;50327;51.328;12.324;2022-09-03T09:02:24;6.03;;;1.80;;
64075;SDS011;50327;51.328;12.324;2022-09-03T09:05:04;7.93;;;1.55;;
64075;SDS011;50327;51.328;12.324;2022-09-03T09:07:38;2.65;;;1.40;;
64075;SDS011;50327;51.328;12.324;2022-09-03T09:23:43;7.93;;;1.88;;
64075;SDS011;50327;51.328;12.324;2022-09-03T09:26:12;4.03;;;1.65;;
64075;SDS011;50327;51.328;12.324;2022-09-03T09:28:40;5.57;;;1.75;;
64075;SDS011;50327;51.328;12.324;2022-09-03T09:31:10;8.32;;;1.70;;
64075;SDS011;50327;51.328;12.324;2022-09-03T09:33:40;2.72;;;1.33;;
64075;SDS011;50327;51.328;12.324;2022-09-03T09:36:07;8.82;;;1.60;;
64075;SDS011;50327;51.328;12.324;2022-09-03T09:38:37;5.00;;;1.77;;
64075;SDS011;50327;51.328;12.324;2022-09-03T09:41:13;5.07;;;1.60;;
64075;SDS011;50327;51.328;12.324;2022-09-03T09:43:43;5.78;;;1.50;;
64075;SDS011;50327;51.328;12.324;2022-09-03T09:46:59;3.88;;;1.52;;
64075;SDS011;50327;51.328;12.324;2022-09-03T09:49:22;4.53;;;1.77;;
64075;SDS011;50327;51.328;12.324;2022-09-03T09:52:02;6.82;;;1.38;;
64075;SDS011;50327;51.328;12.324;2022-09-03T09:54:31;11.80;;;1.60;;
64075;SDS011;50327;51.328;12.324;2022-09-03T09:56:58;10.68;;;1.40;;
64075;SDS011;50327;51.328;12.324;2022-09-03T09:59:25;3.30;;;1.33;;
64075;SDS011;50327;51.328;12.324;2022-09-03T10:02:01;9.18;;;1.63;;
64075;SDS011;50327;51.328;12.324;2022-09-03T10:04:30;6.00;;;1.30;;
64075;SDS011;50327;51.328;12.324;2022-09-03T10:07:04;6.07;;;1.60;;
64075;SDS011;50327;51.328;12.324;2022-09-03T10:09:59;5.88;;;1.92;;
64075;SDS011;50327;51.328;12.324;2022-09-03T10:15:30;4.10;;;1.63;;
64075;SDS011;50327;51.328;12.324;2022-09-03T10:18:21;5.30;;;1.30;;
64075;SDS011;50327;51.328;12.324;2022-09-03T10:23:45;4.53;;;1.65;;
64075;SDS011;50327;51.328;12.324;2022-09-03T10:26:21;5.75;;;1.55;;
64075;SDS011;50327;51.328;12.324;2022-09-03T10:28:55;11.10;;;1.98;;
64075;SDS011;50327;51.328;12.324;2022-09-03T10:51:16;5.30;;;1.95;;
64075;SDS011;50327;51.328;12.324;2022-09-03T10:56:48;4.38;;;1.63;;
64075;SDS011;50327;51.328;12.324;2022-09-03T11:07:58;5.78;;;1.60;;
64075;SDS011;50327;51.328;12.324;2022-09-03T11:10:31;4.50;;;1.40;;
64075;SDS011;50327;51.328;12.324;2022-09-03T11:13:03;7.40;;;1.43;;
64075;SDS011;50327;51.328;12.324;2022-09-03T11:18:15;6.38;;;1.50;;
64075;SDS011;50327;51.328;12.324;2022-09-03T11:20:42;4.22;;;1.52;;
64075;SDS011;50327;51.328;12.324;2022-09-03T11:23:08;7.85;;;1.85;;
64075;SDS011;50327;51.328;12.324;2022-09-03T11:33:29;8.82;;;2.15;;
64075;SDS011;50327;51.328;12.324;2022-09-03T11:35:59;3.33;;;1.70;;
64075;SDS011;50327;51.328;12.324;2022-09-03T11:38:26;4.95;;;1.70;;
64075;SDS011;50327;51.328;12.324;2022-09-03T11:43:51;20.02;;;2.00;;
64075;SDS011;50327;51.328;12.324;2022-09-03T11:56:22;4.72;;;2.08;;
64075;SDS011;50327;51.328;12.324;2022-09-03T11:58:58;10.50;;;1.73;;
64075;SDS011;50327;51.328;12.324;2022-09-03T12:01:24;5.45;;;1.60;;
64075;SDS011;50327;51.328;12.324;2022-09-03T12:04:13;4.82;;;1.98;;
64075;SDS011;50327;51.328;12.324;2022-09-03T12:12:00;7.72;;;1.70;;
64075;SDS011;50327;51.328;12.324;2022-09-03T12:14:48;3.72;;;1.42;;
64075;SDS011;50327;51.328;12.324;2022-09-03T12:20:09;10.30;;;1.60;;
64075;SDS011;50327;51.328;12.324;2022-09-03T12:22:37;3.15;;;1.50;;
64075;SDS011;50327;51.328;12.324;2022-09-03T12:25:12;3.25;;;1.73;;
64075;SDS011;50327;51.328;12.324;2022-09-03T12:27:40;3.58;;;1.50;;
64075;SDS011;50327;51.328;12.324;2022-09-03T12:30:13;6.25;;;2.08;;
64075;SDS011;50327;51.328;12.324;2022-09-03T12:32:40;4.90;;;1.40;;
64075;SDS011;50327;51.328;12.324;2022-09-03T12:38:02;6.45;;;1.70;;
64075;SDS011;50327;51.328;12.324;2022-09-03T12:40:28;10.82;;;2.03;;
64075;SDS011;50327;51.328;12.324;2022-09-03T12:42:54;8.27;;;1.60;;
64075;SDS011;50327;51.328;12.324;2022-09-03T12:45:40;4.30;;;1.52;;
64075;SDS011;50327;51.328;12.324;2022-09-03T12:48:13;10.88;;;1.90;;
64075;SDS011;50327;51.328;12.324;2022-09-03T12:50:40;3.97;;;1.60;;
64075;SDS011;50327;51.328;12.324;2022-09-03T12:53:06;6.25;;;2.30;;
64075;SDS011;50327;51.328;12.324;2022-09-03T12:55:36;7.65;;;1.80;;
64075;SDS011;50327;51.328;12.324;2022-09-03T13:00:51;4.63;;;1.70;;
64075;SDS011;50327;51.328;12.324;2022-09-03T13:03:24;6.13;;;1.83;;
64075;SDS011;50327;51.328;12.324;2022-09-03T13:05:56;7.90;;;1.70;;
64075;SDS011;50327;51.328;12.324;2022-09-03T13:08:26;5.13;;;1.80;;
64075;SDS011;50327;51.328;12.324;2022-09-03T13:10:57;6.20;;;1.92;;
64075;SDS011;50327;51.328;12.324;2022-09-03T13:13:25;6.75;;;2.08;;
64075;SDS011;50327;51.328;12.324;2022-09-03T13:16:20;7.40;;;1.83;;
64075;SDS011;50327;51.328;12.324;2022-09-03T13:30:31;9.98;;;1.85;;
64075;SDS011;50327;51.328;12.324;2022-09-03T13:35:47;9.48;;;1.55;;
64075;SDS011;50327;51.328;12.324;2022-09-03T13:38:29;5.10;;;1.40;;
64075;SDS011;50327;51.328;12.324;2022-09-03T13:41:05;3.80;;;1.60;;
64075;SDS011;50327;51.328;12.324;2022-09-03T13:46:08;9.77;;;1.67;;
64075;SDS011;50327;51.328;12.324;2022-09-03T13:48:41;6.20;;;1.75;;
64075;SDS011;50327;51.328;12.324;2022-09-03T13:51:28;5.05;;;2.05;;
64075;SDS011;50327;51.328;12.324;2022-09-03T13:56:52;4.78;;;1.48;;
64075;SDS011;50327;51.328;12.324;2022-09-03T14:04:53;4.25;;;1.55;;
64075;SDS011;50327;51.328;12.324;2022-09-03T14:07:21;8.43;;;2.08;;
64075;SDS011;50327;51.328;12.324;2022-09-03T14:09:54;8.25;;;1.60;;
64075;SDS011;50327;51.328;12.324;2022-09-03T14:12:34;7.45;;;1.70;;
64075;SDS011;50327;51.328;12.324;2022-09-03T14:20:17;5.87;;;2.00;;
64075;SDS011;50327;51.328;12.324;2022-09-03T14:25:16;4.82;;;1.75;;
64075;SDS011;50327;51.328;12.324;2022-09-03T14:27:44;7.57;;;1.65;;
64075;SDS011;50327;51.328;12.324;2022-09-03T14:32:46;7.90;;;3.03;;
64075;SDS011;50327;51.328;12.324;2022-09-03T14:40:43;5.55;;;1.85;;
64075;SDS011;50327;51.328;12.324;2022-09-03T14:54:26;8.80;;;1.50;;
64075;SDS011;50327;51.328;12.324;2022-09-03T15:07:32;5.80;;;1.83;;
64075;SDS011;50327;51.328;12.324;2022-09-03T15:10:19;9.23;;;1.92;;
64075;SDS011;50327;51.328;12.324;2022-09-03T15:12:54;5.60;;;2.08;;
64075;SDS011;50327;51.328;12.324;2022-09-03T15:15:27;10.82;;;1.60;;
64075;SDS011;50327;51.328;12.324;2022-09-03T15:18:01;6.18;;;1.88;;
64075;SDS011;50327;51.328;12.324;2022-09-03T15:20:31;5.15;;;1.58;;
64075;SDS011;50327;51.328;12.324;2022-09-03T15:31:34;14.30;;;2.65;;
64075;SDS011;50327;51.328;12.324;2022-09-03T15:37:28;8.00;;;2.27;;
64075;SDS011;50327;51.328;12.324;2022-09-03T15:40:06;5.45;;;1.65;;
64075;SDS011;50327;51.328;12.324;2022-09-03T15:42:44;4.93;;;1.70;;
64075;SDS011;50327;51.328;12.324;2022-09-03T15:45:33;6.93;;;1.60;;
64075;SDS011;50327;51.328;12.324;2022-09-03T15:48:22;7.78;;;1.60;;
64075;SDS011;50327;51.328;12.324;2022-09-03T15:53:32;7.77;;;1.63;;
64075;SDS011;50327;51.328;12.324;2022-09-03T15:56:09;5.70;;;1.63;;
64075;SDS011;50327;51.328;12.324;2022-09-03T15:58:40;5.53;;;1.90;;
64075;SDS011;50327;51.328;12.324;2022-09-03T16:07:00;5.25;;;1.63;;
64075;SDS011;50327;51.328;12.324;2022-09-03T16:14:50;11.75;;;1.83;;
64075;SDS011;50327;51.328;12.324;2022-09-03T16:17:30;4.57;;;1.67;;
64075;SDS011;50327;51.328;12.324;2022-09-03T16:22:39;4.13;;;1.55;;
64075;SDS011;50327;51.328;12.324;2022-09-03T16:25:14;8.63;;;1.90;;
64075;SDS011;50327;51.328;12.324;2022-09-03T16:46:15;5.85;;;2.15;;
64075;SDS011;50327;51.328;12.324;2022-09-03T17:01:54;6.18;;;1.73;;
64075;SDS011;50327;51.328;12.324;2022-09-03T17:12:43;7.13;;;1.85;;
64075;SDS011;50327;51.328;12.324;2022-09-03T17:17:59;11.63;;;2.33;;
64075;SDS011;50327;51.328;12.324;2022-09-03T17:23:40;7.03;;;2.10;;
64075;SDS011;50327;51.328;12.324;2022-09-03T17:31:47;7.43;;;2.08;;
64075;SDS011;50327;51.328;12.324;2022-09-03T17:37:12;8.52;;;2.78;;
64075;SDS011;50327;51.328;12.324;2022-09-03T17:43:04;6.03;;;2.53;;
64075;SDS011;50327;51.328;12.324;2022-09-03T17:51:24;5.22;;;2.30;;
64075;SDS011;50327;51.328;12.324;2022-09-03T17:53:58;8.52;;;2.63;;
64075;SDS011;50327;51.328;12.324;2022-09-03T17:56:32;8.70;;;2.55;;
64075;SDS011;50327;51.328;12.324;2022-09-03T18:02:16;9.30;;;2.70;;
64075;SDS011;50327;51.328;12.324;2022-09-03T18:12:31;7.45;;;2.80;;
64075;SDS011;50327;51.328;12.324;2022-09-03T18:15:07;7.82;;;3.13;;
64075;SDS011;50327;51.328;12.324;2022-09-03T18:20:15;10.05;;;3.28;;
64075;SDS011;50327;51.328;12.324;2022-09-03T18:23:10;10.65;;;3.05;;
64075;SDS011;50327;51.328;12.324;2022-09-03T18:26:04;7.57;;;3.08;;
64075;SDS011;50327;51.328;12.324;2022-09-03T18:29:04;8.60;;;2.72;;
64075;SDS011;50327;51.328;12.324;2022-09-03T18:31:54;15.85;;;3.55;;
64075;SDS011;50327;51.328;12.324;2022-09-03T18:34:38;8.02;;;3.58;;
64075;SDS011;50327;51.328;12.324;2022-09-03T18:37:24;12.88;;;3.40;;
64075;SDS011;50327;51.328;12.324;2022-09-03T18:40:15;9.45;;;3.38;;
64075;SDS011;50327;51.328;12.324;2022-09-03T19:00:40;9.48;;;3.03;;
64075;SDS011;50327;51.328;12.324;2022-09-03T19:09:57;10.18;;;3.22;;
64075;SDS011;50327;51.328;12.324;2022-09-03T19:15:45;6.95;;;3.45;;
64075;SDS011;50327;51.328;12.324;2022-09-03T19:21:44;10.43;;;3.08;;
64075;SDS011;50327;51.328;12.324;2022-09-03T19:24:35;7.03;;;3.05;;
64075;SDS011;50327;51.328;12.324;2022-09-03T19:27:23;8.85;;;2.95;;
64075;SDS011;50327;51.328;12.324;2022-09-03T19:30:41;7.15;;;3.28;;
64075;SDS011;50327;51.328;12.324;2022-09-03T19:36:53;11.38;;;2.95;;
64075;SDS011;50327;51.328;12.324;2022-09-03T19:55:47;14.10;;;3.33;;
64075;SDS011;50327;51.328;12.324;2022-09-03T19:58:35;9.93;;;2.97;;
64075;SDS011;50327;51.328;12.324;2022-09-03T20:04:12;12.45;;;3.50;;
64075;SDS011;50327;51.328;12.324;2022-09-03T20:06:58;21.75;;;4.57;;
64075;SDS011;50327;51.328;12.324;2022-09-03T20:09:44;9.00;;;3.13;;
64075;SDS011;50327;51.328;12.324;2022-09-03T20:12:32;7.55;;;3.08;;
64075;SDS011;50327;51.328;12.324;2022-09-03T20:15:04;11.73;;;3.25;;
64075;SDS011;50327;51.328;12.324;2022-09-03T20:20:09;8.48;;;3.72;;
64075;SDS011;50327;51.328;12.324;2022-09-03T20:28:49;7.88;;;2.85;;
64075;SDS011;50327;51.328;12.324;2022-09-03T20:46:54;19.33;;;4.65;;
64075;SDS011;50327;51.328;12.324;2022-09-03T20:55:46;12.52;;;4.13;;
64075;SDS011;50327;51.328;12.324;2022-09-03T21:03:42;9.88;;;4.90;;
64075;SDS011;50327;51.328;12.324;2022-09-03T21:25:06;11.85;;;4.60;;
64075;SDS011;50327;51.328;12.324;2022-09-03T21:27:44;12.35;;;4.55;;
64075;SDS011;50327;51.328;12.324;2022-09-03T21:30:16;10.85;;;3.83;;
64075;SDS011;50327;51.328;12.324;2022-09-03T21:35:21;13.85;;;4.25;;
64075;SDS011;50327;51.328;12.324;2022-09-03T21:37:57;8.75;;;3.67;;
64075;SDS011;50327;51.328;12.324;2022-09-03T21:40:27;13.98;;;3.80;;
64075;SDS011;50327;51.328;12.324;2022-09-03T21:45:34;8.82;;;3.60;;
64075;SDS011;50327;51.328;12.324;2022-09-03T21:48:11;12.50;;;3.80;;
64075;SDS011;50327;51.328;12.324;2022-09-03T21:50:53;8.73;;;3.95;;
64075;SDS011;50327;51.328;12.324;2022-09-03T21:56:08;12.07;;;3.97;;
64075;SDS011;50327;51.328;12.324;2022-09-03T22:04:06;9.93;;;3.78;;
64075;SDS011;50327;51.328;12.324;2022-09-03T22:06:37;9.32;;;3.45;;
64075;SDS011;50327;51.328;12.324;2022-09-03T22:09:23;11.30;;;3.45;;
64075;SDS011;50327;51.328;12.324;2022-09-03T22:14:51;12.43;;;3.90;;
64075;SDS011;50327;51.328;12.324;2022-09-03T22:20:11;15.25;;;3.92;;
64075;SDS011;50327;51.328;12.324;2022-09-03T22:25:13;8.88;;;3.53;;
64075;SDS011;50327;51.328;12.324;2022-09-03T22:27:46;7.10;;;3.42;;
64075;SDS011;50327;51.328;12.324;2022-09-03T22:30:24;11.52;;;3.70;;
64075;SDS011;50327;51.328;12.324;2022-09-03T22:35:56;9.00;;;3.50;;
64075;SDS011;50327;51.328;12.324;2022-09-03T22:38:43;9.40;;;3.38;;